Time;durP1;ratioP1;P1;durP2;ratioP2;P2;SDS_P1;SDS_P2;PMS_P1;PMS_P2;Temp;Humidity;BMP_temperature;BMP_pressure;BME280_temperature;BME280_humidity;BME280_pressure;Samples;Min_cycle;Max_cycle;Signal;HPM_P1;HPM_P2
2023/07/30 00:00:22;;;;;;;11.57;10.47;;;;;;;;;;5079683;28;20512;-63
2023/07/30 00:02:49;;;;;;;12.93;11.83;;;;;;;;;;5079818;28;20543;-63
2023/07/30 00:05:15;;;;;;;12.10;10.63;;;;;;;;;;5078407;28;20523;-63
2023/07/30 00:07:41;;;;;;;13.70;12.50;;;;;;;;;;5078678;28;20471;-63
2023/07/30 00:10:08;;;;;;;13.73;11.97;;;;;;;;;;5080188;28;20481;-63
2023/07/30 00:12:35;;;;;;;13.00;11.90;;;;;;;;;;5074968;28;20536;-63
2023/07/30 00:15:03;;;;;;;13.07;11.87;;;;;;;;;;5078664;28;20538;-62
2023/07/30 00:17:29;;;;;;;14.93;13.43;;;;;;;;;;5080215;28;20460;-62
2023/07/30 00:19:55;;;;;;;13.67;12.37;;;;;;;;;;5079317;28;20480;-62
2023/07/30 00:22:22;;;;;;;12.50;11.30;;;;;;;;;;5079268;28;20448;-63
2023/07/30 00:24:48;;;;;;;13.13;11.93;;;;;;;;;;5078539;28;20483;-63
2023/07/30 00:27:14;;;;;;;12.93;11.47;;;;;;;;;;5070043;28;20818;-63
2023/07/30 00:29:41;;;;;;;12.83;11.53;;;;;;;;;;5078538;28;20515;-64
2023/07/30 00:32:09;;;;;;;13.03;11.70;;;;;;;;;;5078365;28;20448;-64
2023/07/30 00:34:35;;;;;;;12.53;11.43;;;;;;;;;;5078024;28;20475;-64
2023/07/30 00:37:02;;;;;;;13.53;12.13;;;;;;;;;;5078250;28;20515;-63
2023/07/30 00:39:28;;;;;;;13.27;11.80;;;;;;;;;;5078984;28;20464;-64
2023/07/30 00:41:54;;;;;;;12.70;11.60;;;;;;;;;;5077437;28;20512;-64
2023/07/30 00:44:21;;;;;;;15.43;11.57;;;;;;;;;;5076279;28;20520;-63
2023/07/30 00:46:47;;;;;;;13.70;12.30;;;;;;;;;;5077905;28;20501;-63
2023/07/30 00:49:15;;;;;;;13.10;12.00;;;;;;;;;;5078294;28;20480;-69
2023/07/30 00:51:42;;;;;;;13.50;12.20;;;;;;;;;;5075590;28;20456;-72
2023/07/30 00:54:08;;;;;;;15.40;14.00;;;;;;;;;;5078689;28;20535;-65
2023/07/30 00:56:35;;;;;;;14.23;12.90;;;;;;;;;;5079744;28;20520;-64
2023/07/30 00:59:01;;;;;;;13.47;12.07;;;;;;;;;;5075510;28;20471;-63
2023/07/30 01:01:28;;;;;;;17.30;13.10;;;;;;;;;;5078524;28;20532;-64
2023/07/30 01:03:55;;;;;;;13.70;12.30;;;;;;;;;;5078773;28;20463;-64
2023/07/30 01:06:23;;;;;;;15.00;13.10;;;;;;;;;;5078136;28;20488;-64
2023/07/30 01:08:49;;;;;;;17.50;14.17;;;;;;;;;;5078968;28;20950;-64
2023/07/30 01:11:16;;;;;;;14.63;13.07;;;;;;;;;;5079082;28;20475;-64
2023/07/30 01:13:43;;;;;;;17.97;13.50;;;;;;;;;;5079228;28;20499;-63
2023/07/30 01:16:10;;;;;;;14.70;13.20;;;;;;;;;;5079228;28;20984;-62
2023/07/30 01:18:36;;;;;;;15.67;13.90;;;;;;;;;;5079009;28;20472;-62
2023/07/30 01:21:04;;;;;;;15.60;14.10;;;;;;;;;;5079571;28;20478;-63
2023/07/30 01:23:30;;;;;;;14.60;13.03;;;;;;;;;;5079022;28;20514;-62
2023/07/30 01:26:00;;;;;;;12.53;11.30;;;;;;;;;;5078679;28;20543;-62
2023/07/30 01:28:28;;;;;;;14.60;10.90;;;;;;;;;;5079210;28;20459;-62
2023/07/30 01:30:55;;;;;;;12.30;10.60;;;;;;;;;;5078371;28;21040;-62
2023/07/30 01:33:22;;;;;;;10.93;9.80;;;;;;;;;;5077748;28;20488;-63
2023/07/30 01:35:49;;;;;;;11.60;9.70;;;;;;;;;;5077597;28;20810;-63
2023/07/30 01:38:17;;;;;;;9.57;8.60;;;;;;;;;;5077540;28;20480;-62
2023/07/30 01:40:43;;;;;;;13.43;8.10;;;;;;;;;;5078222;28;20480;-61
2023/07/30 01:43:10;;;;;;;10.80;7.13;;;;;;;;;;5080935;28;20897;-62
2023/07/30 01:45:37;;;;;;;10.67;7.83;;;;;;;;;;5081227;28;20491;-63
2023/07/30 01:48:03;;;;;;;8.50;7.37;;;;;;;;;;5081579;28;20888;-63
2023/07/30 01:50:30;;;;;;;8.27;6.53;;;;;;;;;;5081724;28;20448;-63
2023/07/30 01:52:56;;;;;;;8.53;7.67;;;;;;;;;;5077836;28;20546;-63
2023/07/30 01:55:24;;;;;;;7.47;6.77;;;;;;;;;;5080986;28;20480;-63
2023/07/30 01:57:50;;;;;;;9.00;6.47;;;;;;;;;;5079934;28;20476;-63
2023/07/30 02:00:16;;;;;;;9.70;7.10;;;;;;;;;;5081027;28;20530;-62
2023/07/30 02:02:43;;;;;;;9.20;8.30;;;;;;;;;;5082318;28;20439;-63
2023/07/30 02:05:09;;;;;;;11.70;7.70;;;;;;;;;;5081592;28;20507;-63
2023/07/30 02:07:36;;;;;;;12.60;7.73;;;;;;;;;;5081375;28;20519;-63
2023/07/30 02:10:02;;;;;;;9.97;8.40;;;;;;;;;;5082560;28;20479;-63
2023/07/30 02:12:30;;;;;;;9.33;8.30;;;;;;;;;;5081820;28;20458;-63
2023/07/30 02:14:56;;;;;;;12.57;10.07;;;;;;;;;;5081619;28;20499;-63
2023/07/30 02:17:22;;;;;;;17.83;10.80;;;;;;;;;;5082027;28;20452;-63
2023/07/30 02:19:49;;;;;;;13.10;11.90;;;;;;;;;;5082027;28;20510;-62
2023/07/30 02:22:15;;;;;;;15.60;12.40;;;;;;;;;;5082359;28;20515;-64
2023/07/30 02:24:42;;;;;;;16.10;14.40;;;;;;;;;;5081909;28;20497;-63
2023/07/30 02:27:08;;;;;;;18.53;14.20;;;;;;;;;;5074648;28;20547;-61
2023/07/30 02:29:36;;;;;;;18.70;14.20;;;;;;;;;;5082150;28;20899;-61
2023/07/30 02:32:02;;;;;;;20.07;15.30;;;;;;;;;;5081564;28;20491;-62
2023/07/30 02:34:28;;;;;;;19.97;17.87;;;;;;;;;;5080150;28;20527;-62
2023/07/30 02:36:55;;;;;;;23.00;18.20;;;;;;;;;;5076557;28;20493;-63
2023/07/30 02:39:21;;;;;;;22.03;18.10;;;;;;;;;;5081500;28;20479;-62
2023/07/30 02:41:47;;;;;;;20.23;18.17;;;;;;;;;;5081549;28;20455;-61
2023/07/30 02:44:14;;;;;;;19.67;17.60;;;;;;;;;;5080986;28;20494;-61
2023/07/30 02:46:42;;;;;;;18.97;15.67;;;;;;;;;;5081549;28;20587;-61
2023/07/30 02:49:08;;;;;;;18.27;14.40;;;;;;;;;;5081786;28;20877;-62
2023/07/30 02:51:35;;;;;;;21.50;15.60;;;;;;;;;;5081607;28;20452;-61
2023/07/30 02:54:04;;;;;;;16.07;14.37;;;;;;;;;;5079747;28;20998;-62
2023/07/30 02:56:31;;;;;;;16.37;14.67;;;;;;;;;;5081558;28;20488;-61
2023/07/30 02:58:57;;;;;;;15.63;13.80;;;;;;;;;;5081566;28;20490;-61
2023/07/30 03:01:24;;;;;;;16.60;14.60;;;;;;;;;;5081060;28;20550;-61
2023/07/30 03:03:51;;;;;;;17.07;15.30;;;;;;;;;;5081322;28;20547;-61
2023/07/30 03:06:18;;;;;;;19.10;15.20;;;;;;;;;;5080069;28;20528;-61
2023/07/30 03:08:44;;;;;;;22.57;15.60;;;;;;;;;;5081151;28;20523;-61
2023/07/30 03:11:11;;;;;;;15.33;13.70;;;;;;;;;;5081660;28;20511;-61
2023/07/30 03:13:37;;;;;;;15.23;12.50;;;;;;;;;;5076419;28;20502;-62
2023/07/30 03:16:03;;;;;;;18.13;13.30;;;;;;;;;;5079670;28;21061;-61
2023/07/30 03:18:30;;;;;;;13.83;10.50;;;;;;;;;;5081171;28;20459;-62
2023/07/30 03:21:00;;;;;;;17.50;10.50;;;;;;;;;;5081329;28;20484;-62
2023/07/30 03:23:26;;;;;;;12.40;8.93;;;;;;;;;;5080598;28;20464;-62
2023/07/30 03:25:53;;;;;;;12.23;8.40;;;;;;;;;;5080781;28;20491;-62
2023/07/30 03:28:19;;;;;;;13.40;7.70;;;;;;;;;;5080838;28;20512;-61
2023/07/30 03:30:45;;;;;;;10.57;6.77;;;;;;;;;;5080112;28;20456;-63
2023/07/30 03:33:12;;;;;;;7.77;5.73;;;;;;;;;;5079931;28;20490;-62
2023/07/30 03:35:38;;;;;;;11.33;5.97;;;;;;;;;;5080327;28;20455;-62
2023/07/30 03:38:06;;;;;;;10.67;5.60;;;;;;;;;;5080059;28;20479;-62
2023/07/30 03:40:32;;;;;;;9.57;5.73;;;;;;;;;;5080837;28;20543;-61
2023/07/30 03:42:59;;;;;;;7.83;4.77;;;;;;;;;;5080494;28;20539;-61
2023/07/30 03:45:25;;;;;;;9.03;5.87;;;;;;;;;;5079809;28;20458;-61
2023/07/30 03:47:51;;;;;;;8.37;5.33;;;;;;;;;;5080506;28;20455;-62
2023/07/30 03:50:18;;;;;;;7.73;5.40;;;;;;;;;;5079922;28;20458;-62
2023/07/30 03:52:44;;;;;;;8.63;4.93;;;;;;;;;;5080975;28;20535;-62
2023/07/30 03:55:12;;;;;;;8.57;5.00;;;;;;;;;;5079790;28;20520;-62
2023/07/30 03:57:38;;;;;;;9.17;5.07;;;;;;;;;;5079872;28;20543;-63
2023/07/30 04:00:05;;;;;;;7.90;5.33;;;;;;;;;;5070409;28;20730;-63
2023/07/30 04:02:32;;;;;;;8.80;5.43;;;;;;;;;;5079320;28;20447;-63
2023/07/30 04:04:58;;;;;;;9.30;4.53;;;;;;;;;;5075249;28;20523;-63
2023/07/30 04:07:24;;;;;;;12.23;5.27;;;;;;;;;;5079068;28;20444;-63
2023/07/30 04:09:51;;;;;;;7.67;4.47;;;;;;;;;;5079452;28;20480;-63
2023/07/30 04:12:21;;;;;;;8.40;4.90;;;;;;;;;;5079003;28;20475;-63
2023/07/30 04:14:47;;;;;;;9.63;5.27;;;;;;;;;;5078973;28;20952;-63
2023/07/30 04:17:14;;;;;;;5.87;3.93;;;;;;;;;;5079929;28;20456;-63
2023/07/30 04:19:40;;;;;;;7.30;4.20;;;;;;;;;;5079837;28;20452;-62
2023/07/30 04:22:06;;;;;;;5.40;4.07;;;;;;;;;;5079188;28;20467;-62
2023/07/30 04:24:33;;;;;;;7.57;4.63;;;;;;;;;;5079308;28;20480;-63
2023/07/30 04:26:59;;;;;;;7.10;3.70;;;;;;;;;;5079599;28;20535;-63
2023/07/30 04:29:27;;;;;;;8.23;4.47;;;;;;;;;;5079330;28;20941;-62
2023/07/30 04:31:53;;;;;;;9.23;4.20;;;;;;;;;;5078956;28;20475;-63
2023/07/30 04:34:19;;;;;;;8.93;3.90;;;;;;;;;;5079026;28;20455;-63
2023/07/30 04:36:46;;;;;;;10.17;3.93;;;;;;;;;;5078520;28;20486;-63
2023/07/30 04:39:13;;;;;;;5.70;3.47;;;;;;;;;;5078821;28;20505;-63
2023/07/30 04:41:39;;;;;;;5.83;3.40;;;;;;;;;;5078992;28;20487;-63
2023/07/30 04:44:06;;;;;;;9.60;4.03;;;;;;;;;;5076901;28;20551;-63
2023/07/30 04:46:34;;;;;;;12.33;3.80;;;;;;;;;;5078267;28;20499;-63
2023/07/30 04:49:02;;;;;;;6.37;3.30;;;;;;;;;;5079339;28;20439;-62
2023/07/30 04:51:28;;;;;;;7.53;3.60;;;;;;;;;;5075806;28;20478;-61
2023/07/30 04:53:55;;;;;;;10.20;3.80;;;;;;;;;;5079313;28;20520;-61
2023/07/30 04:56:21;;;;;;;7.10;2.77;;;;;;;;;;5079273;28;20500;-62
2023/07/30 04:58:47;;;;;;;6.87;3.70;;;;;;;;;;5078373;28;20956;-62
2023/07/30 05:01:14;;;;;;;7.17;2.97;;;;;;;;;;5077916;28;20511;-62
2023/07/30 05:03:41;;;;;;;13.23;4.00;;;;;;;;;;5078572;28;20491;-62
2023/07/30 05:06:08;;;;;;;5.53;3.80;;;;;;;;;;5077662;28;20448;-63
2023/07/30 05:08:34;;;;;;;6.10;3.20;;;;;;;;;;5074656;28;20481;-62
2023/07/30 05:11:00;;;;;;;5.13;3.57;;;;;;;;;;5079085;28;20852;-61
2023/07/30 05:13:27;;;;;;;8.47;3.30;;;;;;;;;;5078410;28;20475;-62
2023/07/30 05:15:53;;;;;;;8.40;3.87;;;;;;;;;;5077264;28;20483;-63
2023/07/30 05:18:19;;;;;;;5.93;3.07;;;;;;;;;;5077173;28;20527;-63
2023/07/30 05:20:48;;;;;;;8.70;3.77;;;;;;;;;;5078694;28;20523;-62
2023/07/30 05:23:14;;;;;;;4.63;3.07;;;;;;;;;;5078924;28;20531;-62
2023/07/30 05:25:40;;;;;;;7.57;3.90;;;;;;;;;;5080296;28;20447;-63
2023/07/30 05:28:07;;;;;;;8.53;3.63;;;;;;;;;;5072421;28;20807;-63
2023/07/30 05:30:33;;;;;;;7.00;3.60;;;;;;;;;;5078578;28;20816;-63
2023/07/30 05:32:59;;;;;;;6.87;3.80;;;;;;;;;;5079620;28;20448;-63
2023/07/30 05:35:26;;;;;;;10.17;3.90;;;;;;;;;;5078158;28;20487;-63
2023/07/30 05:37:53;;;;;;;8.30;3.77;;;;;;;;;;5078031;28;20507;-63
2023/07/30 05:40:20;;;;;;;8.83;4.27;;;;;;;;;;5079217;28;20544;-61
2023/07/30 05:42:46;;;;;;;9.70;3.40;;;;;;;;;;5073808;28;20484;-62
2023/07/30 05:45:13;;;;;;;7.13;3.83;;;;;;;;;;5078452;28;20801;-62
2023/07/30 05:47:39;;;;;;;8.23;3.93;;;;;;;;;;5078090;28;21039;-62
2023/07/30 05:50:07;;;;;;;9.50;3.57;;;;;;;;;;5078892;28;20485;-63
2023/07/30 05:52:33;;;;;;;6.23;3.33;;;;;;;;;;5078569;28;20452;-62
2023/07/30 05:55:01;;;;;;;6.33;3.43;;;;;;;;;;5078925;28;20471;-62
2023/07/30 05:57:27;;;;;;;7.60;3.80;;;;;;;;;;5078734;28;20502;-62
2023/07/30 05:59:53;;;;;;;5.13;3.20;;;;;;;;;;5078460;28;20914;-61
2023/07/30 06:02:20;;;;;;;8.53;3.60;;;;;;;;;;5077984;28;20498;-62
2023/07/30 06:04:46;;;;;;;6.17;3.60;;;;;;;;;;5078657;28;20459;-61
2023/07/30 06:07:13;;;;;;;8.20;4.03;;;;;;;;;;5077611;28;20474;-61
2023/07/30 06:09:39;;;;;;;7.83;4.00;;;;;;;;;;5078287;28;20594;-63
2023/07/30 06:12:07;;;;;;;13.20;4.23;;;;;;;;;;5079334;28;20843;-63
2023/07/30 06:14:33;;;;;;;10.50;7.60;;;;;;;;;;5074256;28;20486;-62
2023/07/30 06:17:00;;;;;;;8.60;7.60;;;;;;;;;;5077604;28;20488;-62
2023/07/30 06:19:26;;;;;;;15.33;7.30;;;;;;;;;;5079050;28;20500;-63
2023/07/30 06:21:53;;;;;;;8.77;7.17;;;;;;;;;;5078266;28;20499;-62
2023/07/30 06:24:19;;;;;;;12.83;6.70;;;;;;;;;;5078036;28;20534;-62
2023/07/30 06:26:46;;;;;;;9.20;7.13;;;;;;;;;;5077969;28;20569;-62
2023/07/30 06:29:13;;;;;;;10.57;6.73;;;;;;;;;;5081787;28;20510;-62
2023/07/30 06:31:40;;;;;;;10.33;7.37;;;;;;;;;;5081271;28;20547;-62
2023/07/30 06:34:06;;;;;;;10.83;6.90;;;;;;;;;;5081292;28;20462;-63
2023/07/30 06:36:33;;;;;;;9.50;5.90;;;;;;;;;;5081352;28;20529;-62
2023/07/30 06:38:59;;;;;;;9.30;6.30;;;;;;;;;;5080263;28;20521;-63
2023/07/30 06:41:25;;;;;;;12.17;6.83;;;;;;;;;;5081749;28;20479;-62
2023/07/30 06:43:52;;;;;;;15.70;7.43;;;;;;;;;;5081455;28;20452;-61
2023/07/30 06:46:19;;;;;;;18.43;8.80;;;;;;;;;;5077553;28;20459;-61
2023/07/30 06:48:46;;;;;;;13.67;8.27;;;;;;;;;;5080780;28;20486;-62
2023/07/30 06:51:13;;;;;;;13.60;8.40;;;;;;;;;;5080857;28;20468;-61
2023/07/30 06:53:40;;;;;;;10.33;6.87;;;;;;;;;;5075603;28;20466;-61
2023/07/30 06:56:06;;;;;;;10.27;6.77;;;;;;;;;;5078959;28;20539;-61
2023/07/30 06:58:32;;;;;;;16.30;7.00;;;;;;;;;;5081656;28;20475;-62
2023/07/30 07:00:59;;;;;;;16.73;7.40;;;;;;;;;;5080524;28;20511;-62
2023/07/30 07:03:26;;;;;;;19.73;8.60;;;;;;;;;;5077800;28;20468;-62
2023/07/30 07:05:53;;;;;;;10.97;7.67;;;;;;;;;;5074947;28;20534;-63
2023/07/30 07:08:20;;;;;;;11.83;8.93;;;;;;;;;;5080760;28;20452;-62
2023/07/30 07:10:46;;;;;;;15.60;10.50;;;;;;;;;;5081178;28;20487;-64
2023/07/30 07:13:15;;;;;;;14.30;10.37;;;;;;;;;;5079927;28;20542;-63
2023/07/30 07:15:41;;;;;;;12.67;9.90;;;;;;;;;;5079818;28;20698;-63
2023/07/30 07:18:07;;;;;;;16.97;10.07;;;;;;;;;;5080755;28;20523;-62
2023/07/30 07:20:35;;;;;;;11.63;9.10;;;;;;;;;;5080099;28;20452;-62
2023/07/30 07:23:01;;;;;;;18.67;9.50;;;;;;;;;;5080464;28;20487;-62
2023/07/30 07:25:28;;;;;;;13.20;9.23;;;;;;;;;;5079615;28;20517;-62
2023/07/30 07:27:54;;;;;;;14.10;8.90;;;;;;;;;;5079932;28;20463;-63
2023/07/30 07:30:21;;;;;;;14.90;10.63;;;;;;;;;;5079618;28;20455;-63
2023/07/30 07:32:50;;;;;;;13.20;10.20;;;;;;;;;;5078776;28;20476;-62
2023/07/30 07:35:16;;;;;;;14.27;10.40;;;;;;;;;;5073025;28;20472;-62
2023/07/30 07:37:44;;;;;;;15.43;11.47;;;;;;;;;;5078313;28;20480;-62
2023/07/30 07:40:11;;;;;;;16.63;11.90;;;;;;;;;;5076165;28;20478;-62
2023/07/30 07:42:38;;;;;;;14.57;10.50;;;;;;;;;;5073509;28;20976;-61
2023/07/30 07:45:05;;;;;;;19.83;11.50;;;;;;;;;;5080506;28;20990;-61
2023/07/30 07:47:31;;;;;;;12.80;10.70;;;;;;;;;;5079775;28;20542;-62
2023/07/30 07:49:58;;;;;;;15.27;12.57;;;;;;;;;;5077874;28;20882;-62
2023/07/30 07:52:25;;;;;;;19.73;13.00;;;;;;;;;;5080475;28;21075;-61
2023/07/30 07:54:52;;;;;;;16.40;13.57;;;;;;;;;;5078500;28;20455;-62
2023/07/30 07:57:19;;;;;;;20.50;17.17;;;;;;;;;;5073068;28;20486;-62
2023/07/30 07:59:45;;;;;;;19.60;15.77;;;;;;;;;;5075082;28;20492;-62
2023/07/30 08:02:12;;;;;;;21.10;18.30;;;;;;;;;;5078112;28;20490;-62
2023/07/30 08:04:38;;;;;;;22.37;16.40;;;;;;;;;;5079459;28;20456;-63
2023/07/30 08:07:05;;;;;;;23.20;18.57;;;;;;;;;;5077718;28;20479;-63
2023/07/30 08:09:32;;;;;;;22.43;20.13;;;;;;;;;;5075697;28;20449;-63
2023/07/30 08:12:00;;;;;;;24.13;20.17;;;;;;;;;;5063047;28;20480;-63
2023/07/30 08:14:26;;;;;;;22.70;20.30;;;;;;;;;;5078570;28;20471;-63
2023/07/30 08:16:52;;;;;;;28.90;22.47;;;;;;;;;;5076830;28;20527;-63
2023/07/30 08:19:19;;;;;;;24.20;21.60;;;;;;;;;;5071087;28;20456;-62
2023/07/30 08:21:45;;;;;;;27.43;21.97;;;;;;;;;;5073329;28;20609;-62
2023/07/30 08:24:12;;;;;;;24.70;22.20;;;;;;;;;;5072167;28;20892;-62
2023/07/30 08:26:38;;;;;;;25.37;22.57;;;;;;;;;;5069995;28;20892;-62
2023/07/30 08:29:09;;;;;;;28.17;22.87;;;;;;;;;;5072904;28;20968;-62
2023/07/30 08:31:36;;;;;;;29.33;24.23;;;;;;;;;;5075370;28;20475;-62
2023/07/30 08:34:02;;;;;;;35.80;23.90;;;;;;;;;;5075851;28;20460;-63
2023/07/30 08:36:29;;;;;;;26.07;23.23;;;;;;;;;;5077162;28;21078;-63
2023/07/30 08:38:55;;;;;;;27.63;23.17;;;;;;;;;;5076189;28;20548;-63
2023/07/30 08:41:21;;;;;;;27.93;23.40;;;;;;;;;;5076143;28;20551;-63
2023/07/30 08:43:48;;;;;;;27.70;23.17;;;;;;;;;;5077939;28;20515;-63
2023/07/30 08:46:16;;;;;;;28.07;24.07;;;;;;;;;;5067544;28;20491;-63
2023/07/30 08:48:43;;;;;;;29.77;24.20;;;;;;;;;;5071544;28;20514;-62
2023/07/30 08:51:09;;;;;;;28.93;23.40;;;;;;;;;;5076233;28;20460;-63
2023/07/30 08:53:36;;;;;;;29.60;22.50;;;;;;;;;;5077028;28;20523;-63
2023/07/30 08:56:02;;;;;;;32.70;24.23;;;;;;;;;;5076558;28;20492;-63
2023/07/30 08:58:29;;;;;;;33.77;25.57;;;;;;;;;;5079305;28;20535;-62
2023/07/30 09:00:56;;;;;;;35.30;26.17;;;;;;;;;;5077151;28;20452;-62
2023/07/30 09:03:25;;;;;;;26.83;23.43;;;;;;;;;;5076894;28;20448;-63
2023/07/30 09:05:52;;;;;;;30.60;25.20;;;;;;;;;;5075850;28;20477;-63
2023/07/30 09:08:18;;;;;;;30.17;24.27;;;;;;;;;;5068478;28;20481;-63
2023/07/30 09:10:45;;;;;;;28.20;23.70;;;;;;;;;;5075614;28;20484;-62
2023/07/30 09:13:11;;;;;;;34.53;25.20;;;;;;;;;;5076948;28;20455;-63
2023/07/30 09:15:38;;;;;;;33.67;25.03;;;;;;;;;;5069178;28;20460;-63
2023/07/30 09:18:05;;;;;;;27.10;22.67;;;;;;;;;;5064849;28;20473;-63
2023/07/30 09:20:39;;;;;;;37.40;22.70;;;;;;;;;;5072632;28;20449;-63
2023/07/30 09:23:06;;;;;;;30.47;20.77;;;;;;;;;;5070502;28;20814;-63
2023/07/30 09:25:32;;;;;;;27.73;22.27;;;;;;;;;;5075295;28;20546;-64
2023/07/30 09:27:59;;;;;;;27.87;21.30;;;;;;;;;;5072359;28;20457;-64
2023/07/30 09:30:27;;;;;;;29.33;20.60;;;;;;;;;;5072640;28;20503;-64
2023/07/30 09:32:54;;;;;;;25.57;19.77;;;;;;;;;;5077390;28;20463;-64
2023/07/30 09:35:20;;;;;;;26.33;20.57;;;;;;;;;;5076399;28;20492;-64
2023/07/30 09:37:48;;;;;;;21.37;18.90;;;;;;;;;;5076248;28;20511;-63
2023/07/30 09:40:17;;;;;;;21.17;17.73;;;;;;;;;;5073104;28;20523;-64
2023/07/30 09:42:44;;;;;;;22.50;18.27;;;;;;;;;;5071885;28;20551;-63
2023/07/30 09:45:17;;;;;;;26.30;17.70;;;;;;;;;;5075213;28;20466;-63
2023/07/30 09:47:46;;;;;;;23.37;15.77;;;;;;;;;;5073089;28;20531;-64
2023/07/30 09:50:13;;;;;;;31.93;16.00;;;;;;;;;;5074541;28;20449;-63
2023/07/30 09:52:40;;;;;;;18.33;15.87;;;;;;;;;;5076746;28;20929;-62
2023/07/30 09:55:08;;;;;;;20.40;15.23;;;;;;;;;;5072341;28;20468;-62
2023/07/30 09:57:34;;;;;;;18.77;14.70;;;;;;;;;;5077020;28;20455;-62
2023/07/30 10:00:01;;;;;;;32.60;14.83;;;;;;;;;;5075359;28;20488;-62
2023/07/30 10:02:31;;;;;;;19.67;14.53;;;;;;;;;;5075800;28;20492;-62
2023/07/30 10:04:58;;;;;;;17.53;14.67;;;;;;;;;;5080279;28;20452;-62
2023/07/30 10:07:25;;;;;;;21.30;15.83;;;;;;;;;;5078353;28;20464;-62
2023/07/30 10:09:53;;;;;;;23.30;17.10;;;;;;;;;;5079047;28;20475;-62
2023/07/30 10:12:23;;;;;;;20.30;18.10;;;;;;;;;;5078274;28;20462;-65
2023/07/30 10:14:49;;;;;;;23.10;16.07;;;;;;;;;;5078338;28;20517;-64
2023/07/30 10:17:17;;;;;;;20.43;18.33;;;;;;;;;;5076455;28;20542;-65
2023/07/30 10:19:47;;;;;;;20.40;16.63;;;;;;;;;;5081019;28;20494;-63
2023/07/30 10:22:21;;;;;;;18.43;16.27;;;;;;;;;;5074566;28;20566;-63
2023/07/30 10:24:56;;;;;;;19.80;16.07;;;;;;;;;;5075969;28;20538;-62
2023/07/30 10:27:25;;;;;;;17.33;15.10;;;;;;;;;;5075142;28;20448;-63
2023/07/30 10:30:09;;;;;;;16.30;14.60;;;;;;;;;;5076853;28;20862;-63
2023/07/30 10:32:38;;;;;;;17.27;15.40;;;;;;;;;;5079735;28;20509;-63
2023/07/30 10:35:05;;;;;;;16.40;14.77;;;;;;;;;;5080063;28;20562;-63
2023/07/30 10:37:31;;;;;;;17.20;14.23;;;;;;;;;;5079564;28;20507;-63
2023/07/30 10:39:58;;;;;;;16.17;13.83;;;;;;;;;;5067275;28;20494;-62
2023/07/30 10:42:33;;;;;;;14.57;13.07;;;;;;;;;;5077104;28;20571;-63
2023/07/30 10:45:00;;;;;;;15.93;13.53;;;;;;;;;;5078432;28;20542;-63
2023/07/30 10:47:27;;;;;;;14.13;12.67;;;;;;;;;;5078221;28;20460;-63
2023/07/30 10:49:56;;;;;;;12.77;10.90;;;;;;;;;;5077108;28;20487;-62
2023/07/30 10:52:25;;;;;;;17.27;11.03;;;;;;;;;;5070816;28;20489;-62
2023/07/30 10:55:00;;;;;;;15.73;11.03;;;;;;;;;;5075426;28;21035;-62
2023/07/30 10:57:32;;;;;;;21.60;11.70;;;;;;;;;;5075076;28;20510;-62
2023/07/30 10:59:59;;;;;;;12.70;11.10;;;;;;;;;;5079994;28;20847;-63
2023/07/30 11:02:26;;;;;;;14.57;10.40;;;;;;;;;;5077535;28;20874;-63
2023/07/30 11:04:52;;;;;;;16.07;12.00;;;;;;;;;;5080452;28;20451;-63
2023/07/30 11:07:19;;;;;;;19.60;10.97;;;;;;;;;;5077893;28;20468;-64
2023/07/30 11:09:45;;;;;;;17.90;11.10;;;;;;;;;;5077910;28;20483;-63
2023/07/30 11:12:12;;;;;;;13.33;10.03;;;;;;;;;;5080459;28;20483;-63
2023/07/30 11:14:39;;;;;;;12.20;9.17;;;;;;;;;;5079399;28;20456;-63
2023/07/30 11:17:06;;;;;;;12.73;9.63;;;;;;;;;;5077821;28;20459;-63
2023/07/30 11:19:33;;;;;;;10.60;9.50;;;;;;;;;;5079232;28;20519;-63
2023/07/30 11:22:00;;;;;;;12.30;8.07;;;;;;;;;;5072434;28;20476;-62
2023/07/30 11:24:34;;;;;;;12.10;8.07;;;;;;;;;;5077662;28;20486;-62
2023/07/30 11:27:01;;;;;;;10.40;8.30;;;;;;;;;;5078460;28;20471;-63
2023/07/30 11:29:28;;;;;;;9.17;7.73;;;;;;;;;;5078445;28;20807;-63
2023/07/30 11:31:58;;;;;;;8.40;7.40;;;;;;;;;;5077384;28;20452;-62
2023/07/30 11:34:26;;;;;;;12.20;7.10;;;;;;;;;;5079995;28;20444;-63
2023/07/30 11:36:52;;;;;;;12.00;7.20;;;;;;;;;;5077619;28;20476;-63
2023/07/30 11:39:19;;;;;;;12.37;6.87;;;;;;;;;;5079323;28;20656;-63
2023/07/30 11:41:46;;;;;;;14.53;7.07;;;;;;;;;;5078596;28;21045;-63
2023/07/30 11:44:27;;;;;;;7.20;6.50;;;;;;;;;;5078380;28;20744;-64
2023/07/30 11:46:54;;;;;;;8.40;5.90;;;;;;;;;;5071908;28;20471;-64
2023/07/30 11:49:22;;;;;;;8.27;5.40;;;;;;;;;;5078409;28;20499;-64
2023/07/30 11:51:49;;;;;;;10.00;5.53;;;;;;;;;;5078445;28;20499;-63
2023/07/30 11:54:22;;;;;;;8.93;4.77;;;;;;;;;;5077840;28;20494;-63
2023/07/30 11:56:54;;;;;;;9.73;4.40;;;;;;;;;;5078293;28;20641;-63
2023/07/30 11:59:21;;;;;;;6.50;4.73;;;;;;;;;;5077737;28;20512;-63
2023/07/30 12:01:47;;;;;;;9.10;4.33;;;;;;;;;;5076484;28;20475;-63
2023/07/30 12:04:14;;;;;;;5.97;3.80;;;;;;;;;;5078276;28;20563;-63
2023/07/30 12:06:42;;;;;;;6.60;3.80;;;;;;;;;;5077422;28;20487;-63
2023/07/30 12:09:12;;;;;;;7.37;4.33;;;;;;;;;;5078917;28;20478;-63
2023/07/30 12:11:45;;;;;;;6.30;3.80;;;;;;;;;;5072981;28;20443;-63
2023/07/30 12:14:11;;;;;;;9.20;4.43;;;;;;;;;;5077567;28;20719;-63
2023/07/30 12:16:38;;;;;;;6.67;3.53;;;;;;;;;;5076461;28;21011;-63
2023/07/30 12:19:04;;;;;;;8.60;3.97;;;;;;;;;;5077382;28;20456;-63
2023/07/30 12:21:31;;;;;;;9.17;4.50;;;;;;;;;;5077814;28;20451;-62
2023/07/30 12:23:59;;;;;;;5.23;3.73;;;;;;;;;;5076774;28;20508;-63
2023/07/30 12:26:25;;;;;;;6.13;3.80;;;;;;;;;;5078990;28;20964;-63
2023/07/30 12:28:51;;;;;;;7.30;3.30;;;;;;;;;;5078527;28;20452;-63
2023/07/30 12:31:18;;;;;;;8.00;3.63;;;;;;;;;;5077636;28;20460;-64
2023/07/30 12:33:44;;;;;;;9.90;3.70;;;;;;;;;;5077879;28;20542;-63
2023/07/30 12:36:11;;;;;;;9.63;4.20;;;;;;;;;;5071700;28;20498;-63
2023/07/30 12:38:37;;;;;;;7.10;4.03;;;;;;;;;;5073812;28;20574;-63
2023/07/30 12:41:05;;;;;;;8.00;3.73;;;;;;;;;;5077849;28;20507;-63
2023/07/30 12:43:31;;;;;;;5.97;3.03;;;;;;;;;;5072795;28;21000;-63
2023/07/30 12:45:59;;;;;;;6.73;3.83;;;;;;;;;;5076667;28;20455;-63
2023/07/30 12:48:25;;;;;;;9.17;3.33;;;;;;;;;;5076638;28;20496;-62
2023/07/30 12:50:51;;;;;;;6.43;3.40;;;;;;;;;;5071218;28;20484;-62
2023/07/30 12:53:18;;;;;;;6.20;2.83;;;;;;;;;;5077070;28;20456;-62
2023/07/30 12:55:44;;;;;;;7.17;3.03;;;;;;;;;;5066029;28;20482;-63
2023/07/30 12:58:12;;;;;;;4.87;3.03;;;;;;;;;;5074433;28;20499;-63
2023/07/30 13:00:38;;;;;;;6.50;3.70;;;;;;;;;;5077489;28;20475;-63
2023/07/30 13:03:05;;;;;;;4.23;2.97;;;;;;;;;;5078781;28;20550;-63
2023/07/30 13:05:32;;;;;;;7.30;2.97;;;;;;;;;;5076954;28;20891;-64
2023/07/30 13:07:58;;;;;;;5.20;3.10;;;;;;;;;;5076122;28;20483;-63
2023/07/30 13:10:25;;;;;;;4.80;2.70;;;;;;;;;;5077628;28;20459;-63
2023/07/30 13:12:51;;;;;;;5.40;2.90;;;;;;;;;;5076735;28;21137;-63
2023/07/30 13:15:19;;;;;;;5.83;3.30;;;;;;;;;;5070640;28;20472;-63
2023/07/30 13:17:45;;;;;;;5.63;2.60;;;;;;;;;;5077343;28;20456;-63
2023/07/30 13:20:12;;;;;;;6.30;2.67;;;;;;;;;;5077332;28;20471;-63
2023/07/30 13:22:38;;;;;;;4.83;2.10;;;;;;;;;;5070527;28;20563;-63
2023/07/30 13:25:05;;;;;;;5.63;2.73;;;;;;;;;;5077291;28;20484;-63
2023/07/30 13:27:31;;;;;;;7.27;2.80;;;;;;;;;;5077930;28;20460;-63
2023/07/30 13:29:58;;;;;;;8.83;3.03;;;;;;;;;;5076707;28;20451;-63
2023/07/30 13:32:26;;;;;;;10.30;2.77;;;;;;;;;;5074606;28;20538;-63
2023/07/30 13:34:53;;;;;;;6.83;2.43;;;;;;;;;;5077975;28;20471;-62
2023/07/30 13:37:19;;;;;;;7.20;3.10;;;;;;;;;;5074954;28;20491;-63
2023/07/30 13:39:45;;;;;;;5.80;2.33;;;;;;;;;;5082073;28;20483;-63
2023/07/30 13:42:12;;;;;;;9.63;2.07;;;;;;;;;;5081009;28;20471;-62
2023/07/30 13:44:38;;;;;;;6.70;1.83;;;;;;;;;;5079704;28;20451;-63
2023/07/30 13:47:05;;;;;;;5.93;2.30;;;;;;;;;;5080049;28;20488;-61
2023/07/30 13:49:33;;;;;;;6.17;2.43;;;;;;;;;;5080467;28;20501;-62
2023/07/30 13:51:59;;;;;;;6.07;2.70;;;;;;;;;;5079411;28;20472;-62
2023/07/30 13:54:26;;;;;;;5.77;2.10;;;;;;;;;;5081146;28;20448;-62
2023/07/30 13:56:52;;;;;;;5.17;2.17;;;;;;;;;;5079824;28;20971;-62
2023/07/30 13:59:19;;;;;;;4.87;1.50;;;;;;;;;;5077239;28;20478;-62
2023/07/30 14:01:45;;;;;;;5.30;1.90;;;;;;;;;;5079993;28;20459;-62
2023/07/30 14:04:12;;;;;;;5.87;1.53;;;;;;;;;;5081149;28;20464;-62
2023/07/30 14:06:40;;;;;;;4.40;1.60;;;;;;;;;;5079627;28;20854;-62
2023/07/30 14:09:06;;;;;;;3.53;1.50;;;;;;;;;;5078006;28;20468;-62
2023/07/30 14:11:32;;;;;;;4.23;1.40;;;;;;;;;;5078612;28;20451;-62
2023/07/30 14:13:59;;;;;;;4.23;1.40;;;;;;;;;;5078134;28;20447;-62
2023/07/30 14:16:26;;;;;;;2.53;1.23;;;;;;;;;;5073474;28;20464;-62
2023/07/30 14:18:53;;;;;;;3.90;1.30;;;;;;;;;;5073524;28;20536;-62
2023/07/30 14:21:19;;;;;;;2.63;1.10;;;;;;;;;;5073569;28;21138;-63
2023/07/30 14:23:47;;;;;;;3.03;1.13;;;;;;;;;;5074260;28;20509;-62
2023/07/30 14:26:13;;;;;;;4.00;1.10;;;;;;;;;;5077842;28;20560;-62